Terminal Aerodrome Forecast
Issued by NWS Knoxville/Tri Cities, TN

Home | Current Version | Previous Version | Text Only | Print | Product List | Glossary On
Versions: 1 2 3 4 5 6 7 8 9 10 11 12 13 14 15 16 17 18 19 20 21 22 23 24 25 26 27 28
000
FTUS44 KMRX 221720
TAFTYS
TAF
KTYS 221720Z 2218/2318 VRB04KT P6SM SCT035 BKN100
     FM230000 VRB05KT 4SM -SHRA BR SCT025 OVC040
     FM230500 VRB05KT P6SM VCSH BKN025 OVC050
     FM231300 03004KT P6SM VCSH SCT020 BKN040 OVC070=

USA.gov is the U.S. government's official web portal to all federal, state and local government web resources and services.